Time;durP1;ratioP1;P1;durP2;ratioP2;P2;SDS_P1;SDS_P2;PMS_P1;PMS_P2;Temp;Humidity;BMP_temperature;BMP_pressure;BME280_temperature;BME280_humidity;BME280_pressure;Samples;Min_cycle;Max_cycle;Signal;HPM_P1;HPM_P2
2023/04/16 00:00:06;;;;;;;19.07;15.40;;;11.60;99.90;;;;;;5039013;28;20234;-63
2023/04/16 00:02:32;;;;;;;19.60;15.80;;;11.60;99.90;;;;;;5040382;28;20898;-63
2023/04/16 00:04:58;;;;;;;17.73;15.03;;;11.60;99.90;;;;;;5040740;28;20522;-63
2023/04/16 00:07:24;;;;;;;16.47;14.53;;;11.60;99.90;;;;;;5042306;28;20803;-62
2023/04/16 00:09:49;;;;;;;17.23;15.23;;;11.60;99.90;;;;;;5040116;28;20686;-62
2023/04/16 00:12:15;;;;;;;16.83;13.90;;;11.70;99.90;;;;;;5041881;28;20653;-62
2023/04/16 00:14:42;;;;;;;16.93;14.80;;;11.70;99.90;;;;;;5043726;28;20175;-62
2023/04/16 00:17:08;;;;;;;16.97;14.03;;;11.70;99.90;;;;;;5039482;28;20966;-63
2023/04/16 00:19:34;;;;;;;17.67;15.00;;;11.70;99.90;;;;;;5040967;28;20499;-62
2023/04/16 00:22:00;;;;;;;19.77;16.00;;;11.70;99.90;;;;;;5044745;28;20841;-62
2023/04/16 00:24:25;;;;;;;17.27;14.90;;;11.60;99.90;;;;;;5058812;28;20427;-63
2023/04/16 00:26:51;;;;;;;17.90;15.10;;;11.70;99.90;;;;;;5039704;28;20260;-62
2023/04/16 00:29:16;;;;;;;22.60;14.60;;;11.60;99.90;;;;;;5040073;28;20196;-63
2023/04/16 00:31:42;;;;;;;17.77;14.70;;;11.60;99.90;;;;;;5038157;28;20199;-62
2023/04/16 00:34:08;;;;;;;18.90;15.73;;;11.60;99.90;;;;;;5041208;28;20180;-63
2023/04/16 00:36:33;;;;;;;18.80;14.90;;;11.60;99.90;;;;;;5040774;28;20183;-63
2023/04/16 00:38:59;;;;;;;19.57;15.37;;;11.70;99.90;;;;;;5038681;28;20539;-62
2023/04/16 00:41:25;;;;;;;18.10;14.80;;;11.70;99.90;;;;;;5038152;28;20210;-62
2023/04/16 00:43:51;;;;;;;19.00;15.13;;;11.60;99.90;;;;;;5040902;28;20195;-62
2023/04/16 00:46:18;;;;;;;19.00;14.87;;;11.60;99.90;;;;;;5035305;28;20729;-62
2023/04/16 00:48:45;;;;;;;20.23;15.73;;;11.60;99.90;;;;;;5040149;28;20176;-62
2023/04/16 00:51:11;;;;;;;20.13;15.53;;;11.50;99.90;;;;;;5042857;28;20564;-62
2023/04/16 00:53:36;;;;;;;17.63;15.60;;;11.50;99.90;;;;;;5041355;28;22058;-62
2023/04/16 00:56:04;;;;;;;18.43;15.30;;;11.50;99.90;;;;;;5037321;28;20430;-62
2023/04/16 00:58:30;;;;;;;21.60;15.40;;;11.60;99.90;;;;;;5036271;28;20276;-62
2023/04/16 01:00:56;;;;;;;20.63;16.23;;;11.60;99.90;;;;;;5035074;28;20467;-62
2023/04/16 01:03:23;;;;;;;19.73;15.90;;;11.50;99.90;;;;;;5034238;28;20463;-62
2023/04/16 01:05:49;;;;;;;17.83;15.30;;;11.60;99.90;;;;;;5037945;28;20192;-61
2023/04/16 01:08:20;;;;;;;19.80;16.67;;;11.60;99.90;;;;;;5039447;28;20483;-62
2023/04/16 01:10:45;;;;;;;18.03;15.10;;;11.60;99.90;;;;;;5036307;28;20450;-62
2023/04/16 01:13:11;;;;;;;17.70;15.90;;;11.50;99.90;;;;;;5038237;28;20469;-62
2023/04/16 01:15:37;;;;;;;22.87;16.07;;;11.70;99.90;;;;;;5037167;28;20184;-63
2023/04/16 01:18:13;;;;;;;20.10;15.83;;;11.60;99.90;;;;;;5040572;28;20473;-62
2023/04/16 01:20:39;;;;;;;19.13;15.67;;;11.60;99.90;;;;;;5035701;28;20333;-62
2023/04/16 01:23:04;;;;;;;18.27;14.93;;;11.70;99.90;;;;;;5038130;28;20906;-62
2023/04/16 01:25:30;;;;;;;18.87;14.03;;;11.70;99.90;;;;;;5041961;28;20577;-62
2023/04/16 01:27:58;;;;;;;20.87;16.70;;;11.70;99.90;;;;;;5037775;28;20991;-62
2023/04/16 01:30:23;;;;;;;20.13;15.37;;;11.60;99.90;;;;;;5037641;28;20195;-63
2023/04/16 01:32:49;;;;;;;19.43;15.67;;;11.50;99.90;;;;;;5036566;28;20438;-63
2023/04/16 01:35:16;;;;;;;16.67;14.60;;;11.50;99.90;;;;;;5035898;28;20222;-63
2023/04/16 01:37:43;;;;;;;19.37;16.20;;;11.50;99.90;;;;;;5037806;28;20219;-62
2023/04/16 01:40:09;;;;;;;16.80;15.10;;;11.60;99.90;;;;;;5040074;28;21276;-62
2023/04/16 01:42:34;;;;;;;16.43;14.70;;;11.50;99.90;;;;;;5043787;28;20501;-62
2023/04/16 01:45:00;;;;;;;19.63;15.87;;;11.50;99.90;;;;;;5039151;28;20462;-62
2023/04/16 01:47:26;;;;;;;22.03;15.50;;;11.40;99.90;;;;;;5040379;28;20186;-62
2023/04/16 01:49:51;;;;;;;20.63;15.60;;;11.40;99.90;;;;;;5041439;28;20250;-62
2023/04/16 01:52:17;;;;;;;19.43;15.90;;;11.50;99.90;;;;;;5037642;28;20184;-62
2023/04/16 01:54:42;;;;;;;17.77;15.03;;;11.50;99.90;;;;;;5037594;28;20191;-62
2023/04/16 01:57:08;;;;;;;17.70;15.17;;;11.40;99.90;;;;;;5041398;28;20638;-62
2023/04/16 01:59:34;;;;;;;17.23;14.40;;;11.40;99.90;;;;;;5036779;28;20191;-63
2023/04/16 02:02:09;;;;;;;20.27;16.23;;;11.40;99.90;;;;;;5036722;28;20223;-62
2023/04/16 02:04:39;;;;;;;17.60;13.00;;;11.40;99.90;;;;;;5038612;28;20182;-63
2023/04/16 02:07:05;;;;;;;19.20;15.13;;;11.40;99.90;;;;;;5036974;28;20427;-63
2023/04/16 02:09:34;;;;;;;17.23;14.83;;;11.40;99.90;;;;;;5038856;28;20919;-63
2023/04/16 02:12:02;;;;;;;15.90;13.83;;;11.40;99.90;;;;;;5052909;28;20983;-63
2023/04/16 02:14:28;;;;;;;17.77;14.57;;;11.30;99.90;;;;;;5037884;28;20439;-63
2023/04/16 02:16:53;;;;;;;16.77;14.73;;;11.30;99.90;;;;;;5035556;28;20450;-62
2023/04/16 02:19:19;;;;;;;20.30;17.00;;;11.30;99.90;;;;;;5041217;28;20456;-62
2023/04/16 02:21:44;;;;;;;19.10;14.70;;;11.30;99.90;;;;;;5033148;28;20207;-62
2023/04/16 02:24:10;;;;;;;18.13;14.33;;;11.40;99.90;;;;;;5038255;28;20294;-62
2023/04/16 02:26:36;;;;;;;17.30;14.80;;;11.30;99.90;;;;;;5035881;28;20243;-62
2023/04/16 02:29:01;;;;;;;20.40;16.90;;;11.30;99.90;;;;;;5042486;28;20172;-63
2023/04/16 02:31:27;;;;;;;18.73;14.83;;;11.20;99.90;;;;;;5036359;28;20200;-62
2023/04/16 02:33:53;;;;;;;18.70;14.50;;;11.20;99.90;;;;;;5037331;28;20184;-63
2023/04/16 02:36:19;;;;;;;17.03;15.23;;;11.30;99.90;;;;;;5035877;28;21170;-63
2023/04/16 02:38:44;;;;;;;17.47;15.10;;;11.30;99.90;;;;;;5038342;28;20438;-62
2023/04/16 02:41:10;;;;;;;15.67;13.17;;;11.40;99.90;;;;;;5038584;28;20261;-63
2023/04/16 02:43:36;;;;;;;18.40;15.90;;;11.40;99.90;;;;;;5049215;28;20239;-63
2023/04/16 02:46:01;;;;;;;20.43;15.40;;;11.30;99.90;;;;;;5037120;28;20176;-62
2023/04/16 02:48:27;;;;;;;20.37;16.40;;;11.30;99.90;;;;;;5035819;28;20188;-62
2023/04/16 02:50:52;;;;;;;18.73;15.40;;;11.20;99.90;;;;;;5039030;28;20208;-62
2023/04/16 02:53:18;;;;;;;19.90;15.63;;;11.10;99.90;;;;;;5037981;28;20194;-62
2023/04/16 02:55:51;;;;;;;21.63;17.03;;;11.10;99.90;;;;;;5041400;28;20210;-63
2023/04/16 02:58:17;;;;;;;19.20;15.97;;;11.20;99.90;;;;;;5036872;28;20657;-63
2023/04/16 03:00:43;;;;;;;19.83;16.20;;;11.30;99.90;;;;;;5032033;28;20540;-62
2023/04/16 03:03:09;;;;;;;19.87;17.73;;;11.20;99.90;;;;;;5038481;28;21026;-63
2023/04/16 03:05:34;;;;;;;20.93;17.00;;;11.30;99.90;;;;;;5039339;28;20199;-63
2023/04/16 03:08:00;;;;;;;19.80;16.73;;;11.30;99.90;;;;;;5041534;28;20180;-63
2023/04/16 03:10:25;;;;;;;22.27;17.20;;;11.40;99.90;;;;;;5039041;28;20203;-62
2023/04/16 03:12:51;;;;;;;19.70;17.37;;;11.40;99.90;;;;;;5044407;28;20179;-63
2023/04/16 03:15:16;;;;;;;19.63;16.60;;;11.30;99.90;;;;;;5041306;28;20192;-63
2023/04/16 03:17:42;;;;;;;21.77;17.10;;;11.40;99.90;;;;;;5043243;28;20191;-63
2023/04/16 03:20:09;;;;;;;22.97;18.67;;;11.40;99.90;;;;;;5038529;28;20223;-63
2023/04/16 03:22:34;;;;;;;18.97;15.53;;;11.50;99.90;;;;;;5036571;28;20219;-63
2023/04/16 03:25:00;;;;;;;19.13;15.50;;;11.50;99.90;;;;;;5041151;28;20418;-63
2023/04/16 03:27:25;;;;;;;21.97;16.77;;;11.50;99.90;;;;;;5037869;28;20182;-62
2023/04/16 03:29:51;;;;;;;21.00;17.17;;;11.40;99.90;;;;;;5040561;28;20168;-62
2023/04/16 03:32:17;;;;;;;20.07;16.73;;;11.40;99.90;;;;;;5032969;28;20184;-62
2023/04/16 03:34:42;;;;;;;20.27;15.40;;;11.40;99.90;;;;;;5034307;28;20640;-62
2023/04/16 03:37:10;;;;;;;20.97;16.30;;;11.40;99.90;;;;;;5033139;28;20195;-62
2023/04/16 03:39:36;;;;;;;18.53;15.80;;;11.50;99.90;;;;;;5035758;28;20234;-62
2023/04/16 03:42:02;;;;;;;18.37;16.13;;;11.50;99.90;;;;;;5036481;28;20473;-62
2023/04/16 03:44:28;;;;;;;20.53;16.27;;;11.60;99.90;;;;;;5031461;28;20176;-62
2023/04/16 03:46:54;;;;;;;21.87;17.50;;;11.40;99.90;;;;;;5035246;28;20439;-62
2023/04/16 03:49:19;;;;;;;19.50;16.57;;;11.40;99.90;;;;;;5040155;28;20433;-62
2023/04/16 03:51:45;;;;;;;19.90;16.43;;;11.50;99.90;;;;;;5036668;28;20200;-63
2023/04/16 03:54:11;;;;;;;19.90;16.13;;;11.30;99.90;;;;;;5044674;28;20723;-63
2023/04/16 03:56:38;;;;;;;21.20;16.60;;;11.30;99.90;;;;;;5041031;28;20187;-63
2023/04/16 03:59:04;;;;;;;20.40;17.20;;;11.30;99.90;;;;;;5043002;28;20183;-62
2023/04/16 04:01:29;;;;;;;21.10;17.67;;;11.40;99.90;;;;;;5037874;28;20458;-62
2023/04/16 04:03:55;;;;;;;19.93;15.47;;;11.40;99.90;;;;;;5039990;28;20233;-62
2023/04/16 04:06:20;;;;;;;20.13;15.40;;;11.40;99.90;;;;;;5037063;28;20633;-62
2023/04/16 04:08:46;;;;;;;18.87;15.20;;;11.50;99.90;;;;;;5038566;28;20598;-63
2023/04/16 04:11:12;;;;;;;20.60;16.47;;;11.50;99.90;;;;;;5037241;28;20617;-62
2023/04/16 04:13:37;;;;;;;21.77;16.87;;;11.50;99.90;;;;;;5040183;28;20654;-62
2023/04/16 04:16:04;;;;;;;21.07;15.90;;;11.60;99.90;;;;;;5034682;28;20678;-62
2023/04/16 04:18:29;;;;;;;18.90;16.47;;;11.60;99.90;;;;;;5039225;28;20184;-62
2023/04/16 04:20:56;;;;;;;18.83;15.63;;;11.50;99.90;;;;;;5041711;28;20461;-63
2023/04/16 04:23:21;;;;;;;19.87;15.67;;;11.50;99.90;;;;;;5044986;28;20230;-63
2023/04/16 04:25:47;;;;;;;18.90;15.30;;;11.60;99.90;;;;;;5041441;28;20466;-63
2023/04/16 04:28:12;;;;;;;17.93;14.20;;;11.60;99.90;;;;;;5043559;28;20184;-63
2023/04/16 04:30:38;;;;;;;19.57;13.93;;;11.60;99.90;;;;;;5042256;28;20229;-63
2023/04/16 04:33:03;;;;;;;16.80;13.27;;;11.50;99.90;;;;;;5044014;28;20267;-63
2023/04/16 04:35:29;;;;;;;14.10;10.70;;;11.50;99.90;;;;;;5043801;28;20183;-63
2023/04/16 04:37:55;;;;;;;14.43;11.40;;;11.60;99.90;;;;;;5040206;28;20192;-62
2023/04/16 04:40:20;;;;;;;17.77;10.87;;;11.50;99.90;;;;;;5037313;28;20878;-63
2023/04/16 04:42:46;;;;;;;15.53;11.07;;;11.50;99.90;;;;;;5041032;28;20212;-62
2023/04/16 04:45:11;;;;;;;14.00;11.00;;;11.60;99.90;;;;;;5043226;28;20267;-62
2023/04/16 04:47:37;;;;;;;13.47;10.53;;;11.50;99.90;;;;;;5040205;28;20191;-62
2023/04/16 04:50:03;;;;;;;11.87;10.10;;;11.60;99.90;;;;;;5041292;28;20214;-62
2023/04/16 04:52:28;;;;;;;13.33;10.57;;;11.60;99.90;;;;;;5038488;28;20290;-62
2023/04/16 04:54:54;;;;;;;12.50;9.80;;;11.60;99.90;;;;;;5037920;28;20685;-62
2023/04/16 04:57:19;;;;;;;12.63;10.10;;;11.50;99.90;;;;;;5038726;28;20179;-62
2023/04/16 04:59:45;;;;;;;15.10;11.33;;;11.50;99.90;;;;;;5037454;28;20223;-62
2023/04/16 05:02:10;;;;;;;14.30;11.63;;;11.60;99.90;;;;;;5033414;28;20239;-62
2023/04/16 05:04:36;;;;;;;15.93;12.97;;;11.60;99.90;;;;;;5038156;28;20292;-62
2023/04/16 05:07:02;;;;;;;14.17;11.07;;;11.60;99.90;;;;;;5039168;28;20191;-62
2023/04/16 05:09:27;;;;;;;14.70;11.30;;;11.60;99.90;;;;;;5040809;28;20176;-62
2023/04/16 05:11:53;;;;;;;15.50;10.90;;;11.60;99.90;;;;;;5040205;28;20207;-62
2023/04/16 05:14:18;;;;;;;17.30;11.60;;;11.70;99.90;;;;;;5037745;28;20177;-63
2023/04/16 05:16:44;;;;;;;15.13;11.37;;;11.60;99.90;;;;;;5038390;28;20227;-62
2023/04/16 05:19:09;;;;;;;15.10;12.30;;;11.50;99.90;;;;;;5039639;28;20196;-63
2023/04/16 05:21:35;;;;;;;13.30;10.37;;;11.50;99.90;;;;;;5035824;28;20226;-63
2023/04/16 05:24:01;;;;;;;15.00;12.30;;;11.50;99.90;;;;;;5040937;28;20203;-63
2023/04/16 05:26:26;;;;;;;14.10;11.40;;;11.60;99.90;;;;;;5039348;28;20184;-62
2023/04/16 05:28:52;;;;;;;15.53;11.60;;;11.60;99.90;;;;;;5051781;28;20176;-62
2023/04/16 05:31:17;;;;;;;14.87;11.47;;;11.50;99.90;;;;;;5035761;28;20203;-62
2023/04/16 05:33:43;;;;;;;14.10;11.70;;;11.60;99.90;;;;;;5038436;28;20187;-62
2023/04/16 05:36:08;;;;;;;15.20;11.80;;;11.60;99.90;;;;;;5040178;28;20219;-62
2023/04/16 05:38:34;;;;;;;17.60;12.33;;;11.60;99.90;;;;;;5040159;28;20668;-63
2023/04/16 05:41:00;;;;;;;15.30;11.93;;;11.60;99.90;;;;;;5035822;28;20556;-62
2023/04/16 05:43:25;;;;;;;16.10;11.17;;;11.50;99.90;;;;;;5038618;28;20196;-62
2023/04/16 05:45:51;;;;;;;17.33;12.03;;;11.60;99.90;;;;;;5044157;28;20188;-63
2023/04/16 05:48:16;;;;;;;14.73;11.73;;;11.60;99.90;;;;;;5038576;28;20176;-63
2023/04/16 05:50:42;;;;;;;13.90;11.40;;;11.70;99.90;;;;;;5038176;28;20332;-62
2023/04/16 05:53:08;;;;;;;16.00;12.30;;;11.70;99.90;;;;;;5039757;28;20181;-62
2023/04/16 05:55:35;;;;;;;14.40;11.23;;;11.60;99.90;;;;;;5040824;28;20188;-62
2023/04/16 05:58:03;;;;;;;13.03;10.30;;;11.70;99.90;;;;;;5037753;28;20434;-62
2023/04/16 06:00:29;;;;;;;14.50;10.20;;;11.70;99.90;;;;;;5034975;28;20464;-62
2023/04/16 06:02:55;;;;;;;14.23;10.70;;;11.70;99.90;;;;;;5036042;28;20462;-62
2023/04/16 06:05:20;;;;;;;14.90;11.30;;;11.70;99.90;;;;;;5036767;28;20501;-61
2023/04/16 06:07:46;;;;;;;16.30;11.23;;;11.70;99.90;;;;;;5036652;28;20191;-61
2023/04/16 06:10:12;;;;;;;13.17;10.03;;;11.70;99.90;;;;;;5034868;28;20203;-62
2023/04/16 06:12:37;;;;;;;13.03;10.17;;;11.70;99.90;;;;;;5036710;28;20661;-62
2023/04/16 06:15:04;;;;;;;16.90;11.00;;;11.60;99.90;;;;;;5034935;28;20192;-62
2023/04/16 06:17:29;;;;;;;13.17;10.70;;;11.60;99.90;;;;;;5040443;28;20627;-62
2023/04/16 06:19:55;;;;;;;13.70;10.00;;;11.70;99.90;;;;;;5036739;28;20530;-62
2023/04/16 06:22:20;;;;;;;11.93;9.20;;;11.80;99.90;;;;;;5036107;28;20226;-62
2023/04/16 06:24:46;;;;;;;14.40;9.77;;;11.80;99.90;;;;;;5039403;28;20192;-62
2023/04/16 06:27:11;;;;;;;13.50;10.70;;;11.70;99.90;;;;;;5042128;28;20188;-63
2023/04/16 06:29:37;;;;;;;16.10;10.47;;;11.70;99.90;;;;;;5036044;28;20179;-63
2023/04/16 06:32:03;;;;;;;14.00;10.30;;;11.70;99.90;;;;;;5036806;28;20188;-63
2023/04/16 06:34:29;;;;;;;12.10;10.27;;;11.80;99.90;;;;;;5040146;28;20189;-63
2023/04/16 06:36:55;;;;;;;12.70;10.33;;;11.80;99.90;;;;;;5042247;28;20844;-63
2023/04/16 06:39:20;;;;;;;11.20;8.87;;;11.80;99.90;;;;;;5034489;28;20449;-63
2023/04/16 06:41:49;;;;;;;12.77;9.57;;;11.80;99.90;;;;;;5036416;28;20235;-63
2023/04/16 06:44:15;;;;;;;12.67;9.30;;;11.90;99.90;;;;;;5040070;28;20195;-63
2023/04/16 06:46:40;;;;;;;11.70;10.00;;;11.80;99.90;;;;;;5037150;28;20955;-63
2023/04/16 06:49:06;;;;;;;12.23;9.20;;;11.80;99.90;;;;;;5034428;28;20180;-63
2023/04/16 06:51:32;;;;;;;11.17;8.97;;;11.80;99.90;;;;;;5035487;28;20706;-61
2023/04/16 06:53:57;;;;;;;10.73;9.00;;;11.80;99.90;;;;;;5032621;28;20184;-61
2023/04/16 06:56:23;;;;;;;12.50;8.87;;;11.80;99.90;;;;;;5036129;28;20466;-62
2023/04/16 06:58:49;;;;;;;11.40;9.17;;;11.90;99.90;;;;;;5034835;28;20171;-62
2023/04/16 07:01:15;;;;;;;16.90;10.40;;;12.00;99.90;;;;;;5032940;28;20208;-63
2023/04/16 07:03:41;;;;;;;14.13;10.33;;;12.00;99.90;;;;;;5037642;28;20473;-64
2023/04/16 07:06:06;;;;;;;13.47;9.73;;;12.10;99.90;;;;;;5034469;28;20426;-64
2023/04/16 07:08:32;;;;;;;11.33;9.17;;;12.00;99.90;;;;;;5036944;28;20234;-61
2023/04/16 07:10:58;;;;;;;15.23;11.40;;;12.10;99.90;;;;;;5032914;28;20202;-64
2023/04/16 07:13:23;;;;;;;12.70;9.83;;;12.20;99.90;;;;;;5039466;28;20194;-61
2023/04/16 07:15:49;;;;;;;11.87;9.57;;;12.20;99.90;;;;;;5038681;28;20187;-61
2023/04/16 07:18:15;;;;;;;15.03;9.83;;;12.20;99.90;;;;;;5037467;28;20180;-62
2023/04/16 07:20:41;;;;;;;13.40;10.80;;;12.20;99.90;;;;;;5037858;28;20302;-62
2023/04/16 07:23:06;;;;;;;12.40;9.37;;;12.20;99.90;;;;;;5036479;28;20477;-62
2023/04/16 07:25:32;;;;;;;14.77;10.20;;;12.20;99.90;;;;;;5041878;28;20172;-62
2023/04/16 07:27:57;;;;;;;10.20;7.70;;;12.20;99.90;;;;;;5042339;28;20184;-62
2023/04/16 07:30:23;;;;;;;11.10;8.20;;;12.20;99.90;;;;;;5044082;28;20309;-62
2023/04/16 07:32:50;;;;;;;10.70;7.80;;;12.30;99.90;;;;;;5041729;28;20722;-63
2023/04/16 07:35:15;;;;;;;9.87;8.60;;;12.40;99.90;;;;;;5043036;28;20206;-63
2023/04/16 07:37:41;;;;;;;9.77;8.00;;;12.40;99.90;;;;;;5040069;28;20449;-63
2023/04/16 07:40:07;;;;;;;13.17;7.93;;;12.40;99.90;;;;;;5041989;28;20203;-63
2023/04/16 07:42:33;;;;;;;11.07;8.27;;;12.40;99.90;;;;;;5045021;28;20222;-63
2023/04/16 07:44:59;;;;;;;10.23;7.60;;;12.40;99.90;;;;;;5044524;28;20425;-63
2023/04/16 07:47:25;;;;;;;14.30;10.30;;;12.40;99.90;;;;;;5048935;28;20960;-63
2023/04/16 07:49:52;;;;;;;15.17;9.97;;;12.40;99.90;;;;;;5046216;28;20420;-63
2023/04/16 07:52:17;;;;;;;14.30;9.63;;;12.40;99.90;;;;;;5044274;28;20529;-63
2023/04/16 07:54:43;;;;;;;12.80;9.83;;;12.30;99.90;;;;;;5040376;28;20524;-63
2023/04/16 07:57:10;;;;;;;11.80;10.03;;;12.30;99.90;;;;;;5044499;28;20241;-63
2023/04/16 07:59:36;;;;;;;14.30;9.60;;;12.30;99.90;;;;;;5042834;28;20199;-63
2023/04/16 08:02:01;;;;;;;13.20;8.50;;;12.30;99.90;;;;;;5038493;28;20442;-63
2023/04/16 08:04:27;;;;;;;11.60;8.70;;;12.40;99.90;;;;;;5043735;28;20181;-63
2023/04/16 08:06:53;;;;;;;12.03;9.13;;;12.30;99.90;;;;;;5039979;28;20278;-63
2023/04/16 08:09:20;;;;;;;12.00;9.07;;;12.40;99.90;;;;;;5046594;28;20215;-63
2023/04/16 08:11:47;;;;;;;13.00;8.93;;;12.40;99.90;;;;;;5038708;28;20461;-65
2023/04/16 08:14:13;;;;;;;12.30;8.60;;;12.50;99.90;;;;;;5038309;28;21000;-63
2023/04/16 08:16:39;;;;;;;11.77;9.47;;;12.50;99.90;;;;;;5042367;28;20438;-62
2023/04/16 08:19:05;;;;;;;12.03;9.27;;;12.50;99.90;;;;;;5044918;28;20203;-65
2023/04/16 08:21:30;;;;;;;14.57;11.27;;;12.60;99.90;;;;;;5037216;28;20901;-63
2023/04/16 08:23:56;;;;;;;11.30;8.70;;;12.70;99.90;;;;;;5041778;28;20466;-63
2023/04/16 08:26:22;;;;;;;11.47;8.80;;;12.70;99.90;;;;;;5049635;28;20179;-63
2023/04/16 08:28:47;;;;;;;9.90;7.67;;;12.70;99.90;;;;;;5056002;28;20206;-63
2023/04/16 08:31:13;;;;;;;12.70;9.40;;;12.70;99.90;;;;;;5050476;28;20200;-62
2023/04/16 08:33:39;;;;;;;10.53;8.90;;;12.60;99.90;;;;;;5048307;28;20659;-62
2023/04/16 08:36:05;;;;;;;10.83;8.90;;;12.40;99.90;;;;;;5047453;28;20544;-63
2023/04/16 08:38:30;;;;;;;10.23;8.50;;;12.50;99.90;;;;;;5041619;28;20441;-63
2023/04/16 08:41:00;;;;;;;10.13;8.33;;;12.60;99.90;;;;;;5045657;28;20583;-63
2023/04/16 08:43:26;;;;;;;11.30;8.20;;;12.70;99.90;;;;;;5047051;28;20658;-63
2023/04/16 08:45:56;;;;;;;9.43;7.07;;;12.80;99.90;;;;;;5042655;28;20996;-63
2023/04/16 08:48:23;;;;;;;11.30;7.20;;;12.80;99.90;;;;;;5042983;28;20769;-63
2023/04/16 08:50:52;;;;;;;10.23;8.30;;;12.80;99.90;;;;;;5041415;28;20446;-63
2023/04/16 08:53:21;;;;;;;12.50;8.03;;;12.90;99.90;;;;;;5042425;28;20527;-63
2023/04/16 08:55:50;;;;;;;10.47;8.10;;;13.00;99.90;;;;;;5040118;28;20450;-63
2023/04/16 08:58:21;;;;;;;9.90;8.10;;;13.00;99.90;;;;;;5042042;28;20473;-63
2023/04/16 09:00:48;;;;;;;11.03;7.60;;;13.00;99.90;;;;;;5056304;28;20568;-63
2023/04/16 09:03:14;;;;;;;11.07;8.10;;;13.00;99.90;;;;;;5041549;28;20795;-63
2023/04/16 09:05:41;;;;;;;8.77;7.40;;;13.00;99.90;;;;;;5040207;28;20430;-63
2023/04/16 09:08:07;;;;;;;12.93;7.57;;;13.10;99.90;;;;;;5037285;28;20411;-63
2023/04/16 09:10:33;;;;;;;8.80;7.20;;;13.10;99.90;;;;;;5042569;28;20473;-63
2023/04/16 09:12:59;;;;;;;10.33;8.37;;;13.10;99.90;;;;;;5038740;28;20814;-63
2023/04/16 09:15:25;;;;;;;13.40;8.50;;;13.00;99.90;;;;;;5041560;28;20423;-63
2023/04/16 09:17:51;;;;;;;10.20;7.93;;;12.90;99.90;;;;;;5037985;28;20180;-63
2023/04/16 09:20:17;;;;;;;13.83;8.50;;;12.80;99.90;;;;;;5031700;28;20589;-63
2023/04/16 09:22:44;;;;;;;13.60;8.70;;;12.80;99.90;;;;;;5027893;28;20466;-63
2023/04/16 09:25:10;;;;;;;9.87;8.30;;;12.80;99.90;;;;;;5023556;28;20575;-64
2023/04/16 09:27:36;;;;;;;10.97;8.23;;;12.80;99.90;;;;;;5047242;28;20435;-63
2023/04/16 09:30:21;;;;;;;11.90;7.97;;;12.80;99.90;;;;;;5039540;28;20451;-64
2023/04/16 09:32:47;;;;;;;11.63;8.53;;;12.80;99.90;;;;;;5028381;28;20487;-63
2023/04/16 09:35:14;;;;;;;10.40;8.00;;;12.90;99.90;;;;;;5036776;28;20451;-63
2023/04/16 09:37:39;;;;;;;13.33;9.10;;;12.90;99.90;;;;;;5036447;28;20434;-66
2023/04/16 09:40:06;;;;;;;12.37;8.70;;;12.80;99.90;;;;;;5037773;28;20465;-62
2023/04/16 09:42:33;;;;;;;11.87;9.27;;;12.80;99.90;;;;;;5034899;28;20199;-62
2023/04/16 09:44:59;;;;;;;11.37;9.13;;;12.80;99.90;;;;;;5036512;28;20884;-63
2023/04/16 09:47:37;;;;;;;10.93;8.93;;;12.70;99.90;;;;;;5042095;28;20454;-62
2023/04/16 09:50:02;;;;;;;17.30;11.63;;;12.80;99.90;;;;;;5040954;28;20481;-62
2023/04/16 09:52:28;;;;;;;11.30;8.50;;;12.90;99.90;;;;;;5042713;28;20473;-62
2023/04/16 09:54:54;;;;;;;13.03;8.83;;;13.00;99.90;;;;;;5037956;28;20188;-63
2023/04/16 09:57:21;;;;;;;11.63;8.80;;;12.80;99.90;;;;;;5039951;28;20212;-62
2023/04/16 09:59:47;;;;;;;11.97;8.77;;;12.70;99.90;;;;;;5036597;28;20272;-63
2023/04/16 10:02:13;;;;;;;11.20;8.47;;;12.70;99.90;;;;;;5043324;28;20481;-63
2023/04/16 10:04:52;;;;;;;12.40;8.37;;;12.80;99.90;;;;;;5039720;28;20999;-63
2023/04/16 10:07:19;;;;;;;14.00;8.73;;;12.90;99.90;;;;;;5036249;28;20184;-63
2023/04/16 10:09:47;;;;;;;18.77;9.40;;;13.00;99.90;;;;;;5035525;28;20438;-63
2023/04/16 10:12:13;;;;;;;13.10;9.43;;;13.00;99.90;;;;;;5040832;28;21079;-63
2023/04/16 10:14:40;;;;;;;10.90;8.70;;;12.90;99.90;;;;;;5038951;28;20430;-63
2023/04/16 10:17:07;;;;;;;12.63;9.10;;;13.00;99.90;;;;;;5041318;28;20414;-63
2023/04/16 10:19:33;;;;;;;13.00;10.47;;;13.00;99.90;;;;;;5036038;28;20458;-63
2023/04/16 10:21:59;;;;;;;12.60;9.20;;;13.10;99.90;;;;;;5040728;28;20454;-63
2023/04/16 10:24:26;;;;;;;12.83;9.37;;;13.10;99.90;;;;;;5038193;28;20439;-62
2023/04/16 10:26:52;;;;;;;12.70;9.07;;;13.00;99.90;;;;;;5041413;28;20417;-63
2023/04/16 10:29:20;;;;;;;11.10;8.30;;;13.10;99.90;;;;;;5045057;28;20425;-63
2023/04/16 10:31:46;;;;;;;13.10;9.10;;;13.00;99.90;;;;;;5038859;28;20478;-63
2023/04/16 10:34:13;;;;;;;12.93;8.80;;;13.10;99.90;;;;;;5047074;28;20516;-63
2023/04/16 10:36:41;;;;;;;19.40;10.87;;;13.10;99.90;;;;;;5041075;28;20952;-63
2023/04/16 10:39:12;;;;;;;13.70;9.50;;;13.10;99.90;;;;;;5042596;28;20437;-63
2023/04/16 10:41:38;;;;;;;11.37;9.57;;;13.10;99.90;;;;;;5040440;28;20580;-63
2023/04/16 10:44:08;;;;;;;11.47;8.23;;;13.10;99.90;;;;;;5040958;28;21070;-63
2023/04/16 10:46:42;;;;;;;11.50;8.87;;;13.10;99.90;;;;;;5037336;28;20443;-63
2023/04/16 10:49:18;;;;;;;10.40;7.70;;;13.20;99.90;;;;;;5041098;28;20457;-63
2023/04/16 10:51:53;;;;;;;11.37;8.60;;;13.20;99.90;;;;;;5037761;28;20469;-63
2023/04/16 10:54:27;;;;;;;12.10;8.70;;;13.20;99.90;;;;;;5039653;28;20930;-63
2023/04/16 10:56:56;;;;;;;9.70;7.30;;;13.20;99.90;;;;;;5042941;28;20434;-63
2023/04/16 10:59:23;;;;;;;10.50;8.13;;;13.20;99.90;;;;;;5043750;28;20418;-63
2023/04/16 11:01:57;;;;;;;11.27;8.07;;;13.10;99.90;;;;;;5043221;28;20441;-63
2023/04/16 11:04:23;;;;;;;12.00;8.43;;;13.10;99.90;;;;;;5043390;28;20449;-63
2023/04/16 11:07:06;;;;;;;11.67;9.13;;;13.10;99.90;;;;;;5043713;28;20442;-61
2023/04/16 11:09:47;;;;;;;12.40;8.83;;;13.10;99.90;;;;;;5043909;28;20186;-64
2023/04/16 11:12:15;;;;;;;11.20;8.67;;;13.00;99.90;;;;;;5045644;28;20454;-63
2023/04/16 11:14:42;;;;;;;11.80;8.97;;;13.00;99.90;;;;;;5044002;28;20527;-63
2023/04/16 11:17:08;;;;;;;10.80;8.80;;;13.10;99.90;;;;;;5045586;28;20858;-64
2023/04/16 11:19:37;;;;;;;11.00;8.20;;;13.20;99.90;;;;;;5043348;28;20461;-63
2023/04/16 11:22:03;;;;;;;10.33;8.43;;;13.20;99.90;;;;;;5041195;28;20453;-63
2023/04/16 11:24:30;;;;;;;10.60;8.23;;;13.10;99.90;;;;;;5045401;28;20430;-64
2023/04/16 11:26:56;;;;;;;10.50;7.77;;;13.10;99.90;;;;;;5045330;28;20817;-63
2023/04/16 11:29:21;;;;;;;11.23;8.83;;;13.10;99.90;;;;;;5047930;28;20433;-63
2023/04/16 11:31:51;;;;;;;10.97;8.40;;;13.10;99.90;;;;;;5043309;28;21026;-63
2023/04/16 11:34:17;;;;;;;9.20;8.00;;;13.20;99.90;;;;;;5047532;28;20682;-64
2023/04/16 11:36:44;;;;;;;11.57;8.00;;;13.20;99.90;;;;;;5044382;28;20908;-63
2023/04/16 11:39:09;;;;;;;11.50;8.90;;;13.10;99.90;;;;;;5043966;28;20951;-64
2023/04/16 11:41:42;;;;;;;9.77;7.30;;;13.10;99.90;;;;;;5046712;28;20452;-64
2023/04/16 11:44:21;;;;;;;10.60;7.07;;;13.10;99.90;;;;;;5045253;28;20369;-62
2023/04/16 11:46:47;;;;;;;10.47;8.30;;;13.10;99.90;;;;;;5043445;28;20442;-62
2023/04/16 11:49:12;;;;;;;10.20;7.57;;;13.10;99.90;;;;;;5048789;28;20479;-62
2023/04/16 11:51:45;;;;;;;10.10;7.63;;;13.10;99.90;;;;;;5045603;28;21302;-62
2023/04/16 11:54:24;;;;;;;7.87;6.77;;;13.10;99.90;;;;;;5043687;28;20188;-62
2023/04/16 11:56:51;;;;;;;8.40;7.20;;;13.10;99.90;;;;;;5044526;28;20611;-62
2023/04/16 11:59:19;;;;;;;8.53;7.07;;;13.10;99.90;;;;;;5042909;28;20499;-62
2023/04/16 12:01:54;;;;;;;9.50;7.37;;;13.10;99.90;;;;;;5039361;28;21196;-62
2023/04/16 12:04:25;;;;;;;8.60;7.40;;;13.00;99.90;;;;;;5043571;28;20522;-62
2023/04/16 12:07:08;;;;;;;9.20;6.97;;;13.00;99.90;;;;;;5056361;28;20430;-63
2023/04/16 12:09:35;;;;;;;12.07;8.00;;;13.00;99.90;;;;;;5040304;28;21033;-62
2023/04/16 12:12:01;;;;;;;10.10;7.20;;;13.10;99.90;;;;;;5042277;28;20476;-63
2023/04/16 12:14:27;;;;;;;14.10;7.67;;;13.10;99.90;;;;;;5036932;28;20472;-62
2023/04/16 12:16:53;;;;;;;8.00;7.10;;;13.00;99.90;;;;;;5043236;28;21041;-62
2023/04/16 12:19:18;;;;;;;12.27;8.70;;;13.00;99.90;;;;;;5045036;28;20450;-62
2023/04/16 12:21:49;;;;;;;10.40;7.83;;;13.00;99.90;;;;;;5042618;28;20281;-62
2023/04/16 12:24:22;;;;;;;11.80;8.00;;;13.00;99.90;;;;;;5040344;28;20222;-62
2023/04/16 12:26:54;;;;;;;10.63;8.23;;;13.10;99.90;;;;;;5039423;28;20471;-62